Palo Alto Battlefield Nation, Texas
Current Conditions -  °F | °C
As of 6:53 AM on Thursday 30 Oct 2014 (Local Time) from KBRO Reporting Station
Haze Haze  
Wind Chill: 68°   Ceiling: Unl
Heat Index: 68°   Visibility: 5mi
Dew Point: 67°   Wind: 0mph
Humidity: 96%   Direction: NA
Pressure: 30.04"   Gusts: NA
Location:  26.0002°N, 97.5729°W
Report Text: KBRO 301153Z 00000KT 5SM BR CLR 20/19 A3004 RMK AO2 SLP172 T02000194 10217 20194 53003
Loading
Personal Weather Stations






























Interactive Weather Map
Tropical Storm Tracking
New forecast layout! Learn more

10-Day Weather Forecast

Advertisements
Track Severe Weather on mobile